Time;durP1;ratioP1;P1;durP2;ratioP2;P2;SDS_P1;SDS_P2;PMS_P1;PMS_P2;Temp;Humidity;BMP_temperature;BMP_pressure;BME280_temperature;BME280_humidity;BME280_pressure;Samples;Min_cycle;Max_cycle;Signal;HPM_P1;HPM_P2
2022/03/08 00:00:25;;;;;;;8.80;5.80;;;-0.10;81.70;;;;;;6075581;23;20202;-92
2022/03/08 00:02:51;;;;;;;7.63;5.87;;;-0.10;81.40;;;;;;6078385;23;20148;-89
2022/03/08 00:05:39;;;;;;;7.57;5.17;;;-0.20;81.30;;;;;;6083059;23;20210;-91
2022/03/08 00:08:08;;;;;;;8.73;5.57;;;-0.20;81.60;;;;;;6096216;23;20190;-92
2022/03/08 00:10:36;;;;;;;7.77;5.17;;;-0.20;81.80;;;;;;6092202;23;20238;-92
2022/03/08 00:13:02;;;;;;;7.03;5.77;;;-0.30;81.70;;;;;;6079166;23;20152;-94
2022/03/08 00:15:28;;;;;;;7.20;5.80;;;-0.30;81.60;;;;;;6086588;23;20174;-95
2022/03/08 00:17:58;;;;;;;7.80;5.93;;;-0.40;81.40;;;;;;6084858;23;20158;-92
2022/03/08 00:20:24;;;;;;;9.17;5.77;;;-0.40;81.80;;;;;;6085577;23;20226;-92
2022/03/08 00:22:50;;;;;;;8.87;6.60;;;-0.40;82.00;;;;;;6091670;23;20165;-94
2022/03/08 00:25:16;;;;;;;7.93;5.90;;;-0.50;82.20;;;;;;6094400;23;20175;-93
2022/03/08 00:27:45;;;;;;;7.63;5.60;;;-0.50;82.30;;;;;;6123927;23;20143;-89
2022/03/08 00:30:13;;;;;;;10.30;6.07;;;-0.50;82.10;;;;;;6091146;23;20147;-89
2022/03/08 00:32:39;;;;;;;8.23;6.37;;;-0.60;82.20;;;;;;6096270;23;20163;-90
2022/03/08 00:35:05;;;;;;;9.13;5.77;;;-0.60;82.20;;;;;;6096437;23;20187;-91
2022/03/08 00:37:34;;;;;;;11.57;6.17;;;-0.60;82.50;;;;;;6088608;23;20166;-90
2022/03/08 00:40:00;;;;;;;8.90;6.40;;;-0.60;82.80;;;;;;6100372;23;20270;-90
2022/03/08 00:42:25;;;;;;;7.30;6.10;;;-0.60;82.80;;;;;;6085822;23;20161;-94
2022/03/08 00:44:51;;;;;;;7.00;5.73;;;-0.60;82.80;;;;;;6077907;23;20178;-94
2022/03/08 00:47:17;;;;;;;7.93;6.13;;;-0.60;82.60;;;;;;6076700;23;20167;-94
2022/03/08 00:49:42;;;;;;;7.43;5.37;;;-0.60;82.60;;;;;;6077129;23;20654;-94
2022/03/08 00:52:11;;;;;;;7.73;5.83;;;-0.60;82.50;;;;;;6077398;23;20155;-95
2022/03/08 00:54:37;;;;;;;7.93;5.97;;;-0.70;82.40;;;;;;6076896;23;20179;-95
2022/03/08 00:57:04;;;;;;;10.37;7.33;;;-0.70;82.20;;;;;;6077270;23;20191;-94
2022/03/08 00:59:29;;;;;;;9.17;6.70;;;-0.80;82.20;;;;;;6076463;23;20206;-92
2022/03/08 01:01:55;;;;;;;9.57;6.30;;;-0.80;82.00;;;;;;6076722;23;20159;-92
2022/03/08 01:04:21;;;;;;;11.40;6.87;;;-0.80;81.90;;;;;;6076707;23;20523;-92
2022/03/08 01:06:46;;;;;;;8.50;6.47;;;-0.80;81.70;;;;;;6076599;23;20618;-92
2022/03/08 01:09:12;;;;;;;8.77;6.37;;;-0.80;81.70;;;;;;6075938;23;20261;-92
2022/03/08 01:11:39;;;;;;;8.13;6.20;;;-0.80;81.50;;;;;;6077063;23;20619;-92
2022/03/08 01:14:06;;;;;;;7.87;5.90;;;-0.80;81.50;;;;;;6076428;23;20691;-94
2022/03/08 01:16:33;;;;;;;10.20;5.80;;;-0.90;81.40;;;;;;6076812;23;20224;-94
2022/03/08 01:18:58;;;;;;;7.67;5.90;;;-0.90;81.40;;;;;;6079173;23;20179;-94
2022/03/08 01:21:25;;;;;;;7.23;5.77;;;-1.00;81.50;;;;;;6076482;23;20155;-94
2022/03/08 01:23:50;;;;;;;8.73;6.00;;;-1.10;81.40;;;;;;6075347;23;20183;-94
2022/03/08 01:26:16;;;;;;;7.70;6.10;;;-1.10;81.40;;;;;;6075674;23;20157;-94
2022/03/08 01:28:42;;;;;;;14.27;9.03;;;-1.10;81.50;;;;;;6076352;23;20159;-94
2022/03/08 01:31:08;;;;;;;9.80;7.03;;;-1.10;81.50;;;;;;6075997;23;20162;-94
2022/03/08 01:33:34;;;;;;;9.23;6.60;;;-1.10;81.70;;;;;;6077001;23;20163;-92
2022/03/08 01:35:59;;;;;;;7.90;6.40;;;-1.10;81.60;;;;;;6077564;23;20620;-94
2022/03/08 01:38:25;;;;;;;8.23;6.73;;;-1.10;81.40;;;;;;6077732;23;20250;-94
2022/03/08 01:40:51;;;;;;;9.20;6.43;;;-1.20;81.20;;;;;;6076701;23;20156;-94
2022/03/08 01:43:17;;;;;;;8.40;6.50;;;-1.20;81.10;;;;;;6079577;23;20158;-94
2022/03/08 01:45:43;;;;;;;11.20;6.80;;;-1.20;81.00;;;;;;6076522;23;20183;-94
2022/03/08 01:48:09;;;;;;;10.57;6.93;;;-1.20;80.90;;;;;;6077123;23;20212;-94
2022/03/08 01:50:35;;;;;;;11.20;6.60;;;-1.20;80.90;;;;;;6077249;23;20159;-94
2022/03/08 01:53:01;;;;;;;8.63;7.30;;;-1.20;80.80;;;;;;6077158;23;20484;-94
2022/03/08 01:55:26;;;;;;;9.80;7.43;;;-1.30;80.90;;;;;;6075832;23;20710;-94
2022/03/08 01:57:53;;;;;;;8.30;7.17;;;-1.30;81.10;;;;;;6076518;23;20162;-94
2022/03/08 02:00:22;;;;;;;8.47;6.20;;;-1.30;81.50;;;;;;6076862;23;20265;-94
2022/03/08 02:02:48;;;;;;;8.50;6.97;;;-1.30;81.30;;;;;;6076513;23;20237;-94
2022/03/08 02:05:14;;;;;;;10.77;7.50;;;-1.40;81.90;;;;;;6076475;23;20668;-92
2022/03/08 02:07:40;;;;;;;10.70;7.83;;;-1.30;83.50;;;;;;6076487;23;20195;-94
2022/03/08 02:10:06;;;;;;;12.97;8.60;;;-1.30;84.70;;;;;;6101667;23;20158;-95
2022/03/08 02:12:32;;;;;;;12.00;8.83;;;-1.30;85.50;;;;;;6075971;23;20207;-94
2022/03/08 02:14:58;;;;;;;13.07;8.70;;;-1.30;86.10;;;;;;6076888;23;20184;-94
2022/03/08 02:17:24;;;;;;;10.33;7.57;;;-1.30;86.20;;;;;;6077590;23;20166;-94
2022/03/08 02:19:50;;;;;;;12.40;7.90;;;-1.40;86.00;;;;;;6076151;23;20178;-92
2022/03/08 02:22:15;;;;;;;9.33;7.37;;;-1.40;85.90;;;;;;6075664;23;20159;-94
2022/03/08 02:24:41;;;;;;;11.43;7.23;;;-1.50;85.60;;;;;;6076250;23;20229;-94
2022/03/08 02:27:08;;;;;;;9.70;7.30;;;-1.50;85.40;;;;;;6076200;23;20214;-94
2022/03/08 02:29:33;;;;;;;9.20;6.90;;;-1.50;85.20;;;;;;6076342;23;20200;-94
2022/03/08 02:32:01;;;;;;;10.43;7.60;;;-1.50;85.10;;;;;;6076470;23;20161;-94
2022/03/08 02:34:27;;;;;;;11.00;8.27;;;-1.60;84.70;;;;;;6075758;23;20266;-94
2022/03/08 02:37:12;;;;;;;9.20;6.70;;;-1.60;84.40;;;;;;6076391;23;20191;-94
2022/03/08 02:39:39;;;;;;;10.17;7.57;;;-1.60;84.20;;;;;;6075291;23;20233;-94
2022/03/08 02:42:05;;;;;;;10.40;7.40;;;-1.70;84.30;;;;;;6076160;23;20163;-94
2022/03/08 02:44:32;;;;;;;12.53;7.67;;;-1.80;84.50;;;;;;6075317;23;20212;-94
2022/03/08 02:47:04;;;;;;;14.37;7.87;;;-2.00;84.90;;;;;;6075324;23;20157;-94
2022/03/08 02:49:30;;;;;;;12.07;8.20;;;-1.90;85.30;;;;;;6075200;23;20187;-94
2022/03/08 02:51:56;;;;;;;12.37;7.90;;;-1.80;85.10;;;;;;6075980;23;20186;-93
2022/03/08 02:54:23;;;;;;;9.73;8.00;;;-1.90;85.10;;;;;;6078260;23;20672;-94
2022/03/08 02:56:48;;;;;;;12.10;8.27;;;-2.10;85.40;;;;;;6075982;23;20551;-94
2022/03/08 02:59:22;;;;;;;9.67;7.57;;;-2.20;85.80;;;;;;6076046;23;20258;-94
2022/03/08 03:01:48;;;;;;;13.83;8.63;;;-2.20;86.20;;;;;;6076303;23;20159;-92
2022/03/08 03:04:14;;;;;;;11.67;8.60;;;-2.20;86.30;;;;;;6075766;23;20192;-94
2022/03/08 03:06:40;;;;;;;17.73;8.27;;;-2.10;86.30;;;;;;6076083;23;20218;-94
2022/03/08 03:09:06;;;;;;;14.63;9.00;;;-2.10;86.40;;;;;;6076043;23;20173;-93
2022/03/08 03:11:32;;;;;;;24.70;8.93;;;-2.10;86.30;;;;;;6075930;23;20187;-93
2022/03/08 03:13:57;;;;;;;16.67;8.93;;;-2.10;86.30;;;;;;6076062;23;20177;-94
2022/03/08 03:16:23;;;;;;;11.97;9.23;;;-2.00;86.30;;;;;;6076283;23;20163;-94
2022/03/08 03:18:48;;;;;;;12.90;8.50;;;-2.00;86.20;;;;;;6075836;23;20518;-94
2022/03/08 03:21:14;;;;;;;11.57;8.13;;;-2.00;86.00;;;;;;6079185;23;20162;-94
2022/03/08 03:23:40;;;;;;;12.30;8.37;;;-2.00;85.80;;;;;;6076861;23;20219;-94
2022/03/08 03:26:05;;;;;;;12.73;7.33;;;-1.90;85.80;;;;;;6077496;23;20165;-94
2022/03/08 03:28:31;;;;;;;11.57;8.00;;;-2.00;85.60;;;;;;6076139;23;20185;-93
2022/03/08 03:30:57;;;;;;;14.07;7.83;;;-2.00;85.50;;;;;;6076527;23;20173;-94
2022/03/08 03:33:22;;;;;;;10.20;8.17;;;-1.90;85.50;;;;;;6078474;23;20169;-93
2022/03/08 03:35:48;;;;;;;10.73;7.70;;;-2.00;85.40;;;;;;6079425;23;20163;-93
2022/03/08 03:38:14;;;;;;;11.70;8.10;;;-2.00;85.40;;;;;;6078697;23;20258;-94
2022/03/08 03:40:39;;;;;;;10.87;7.23;;;-2.10;85.30;;;;;;6078825;23;20469;-94
2022/03/08 03:43:05;;;;;;;8.77;7.13;;;-2.10;85.10;;;;;;6078445;23;20501;-93
2022/03/08 03:45:30;;;;;;;12.80;7.73;;;-2.10;84.90;;;;;;6078423;23;20178;-94
2022/03/08 03:47:56;;;;;;;11.67;7.90;;;-2.20;84.90;;;;;;6078243;23;20167;-93
2022/03/08 03:50:22;;;;;;;12.30;8.47;;;-2.20;84.70;;;;;;6078954;23;20193;-94
2022/03/08 03:52:47;;;;;;;12.23;8.80;;;-2.30;84.50;;;;;;6103865;23;20151;-94
2022/03/08 03:55:14;;;;;;;11.73;8.47;;;-2.30;84.40;;;;;;6077824;23;20189;-94
2022/03/08 03:57:40;;;;;;;10.93;8.80;;;-2.30;84.30;;;;;;6078743;23;20161;-93
2022/03/08 04:00:07;;;;;;;11.77;9.07;;;-2.40;84.20;;;;;;6077754;23;20195;-94
2022/03/08 04:02:33;;;;;;;10.57;7.87;;;-2.40;84.00;;;;;;6078413;23;20163;-94
2022/03/08 04:04:59;;;;;;;11.33;8.53;;;-2.40;83.80;;;;;;6077945;23;20186;-93
2022/03/08 04:07:24;;;;;;;13.07;8.43;;;-2.40;83.80;;;;;;6076878;23;20605;-93
2022/03/08 04:09:50;;;;;;;13.33;8.67;;;-2.40;83.80;;;;;;6102088;23;20168;-94
2022/03/08 04:12:16;;;;;;;12.60;8.27;;;-2.40;83.70;;;;;;6077485;23;20162;-94
2022/03/08 04:14:42;;;;;;;11.00;8.50;;;-2.40;83.70;;;;;;6077083;23;20180;-94
2022/03/08 04:17:07;;;;;;;20.13;8.30;;;-2.40;83.40;;;;;;6080209;23;20188;-94
2022/03/08 04:19:33;;;;;;;11.60;8.10;;;-2.50;83.30;;;;;;6079058;23;20193;-94
2022/03/08 04:21:59;;;;;;;16.37;8.80;;;-2.50;83.20;;;;;;6082203;23;20155;-94
2022/03/08 04:24:25;;;;;;;18.67;7.90;;;-2.40;83.20;;;;;;6078441;23;20269;-94
2022/03/08 04:26:51;;;;;;;11.87;7.87;;;-2.40;83.20;;;;;;6079272;23;20207;-94
2022/03/08 04:29:17;;;;;;;10.53;8.53;;;-2.40;83.40;;;;;;6079030;23;20164;-94
2022/03/08 04:31:42;;;;;;;11.97;8.23;;;-2.60;83.70;;;;;;6078903;23;20170;-94
2022/03/08 04:34:08;;;;;;;13.73;8.77;;;-2.60;84.10;;;;;;6077620;23;20189;-94
2022/03/08 04:36:34;;;;;;;13.67;9.07;;;-2.70;84.60;;;;;;6078787;23;20159;-94
2022/03/08 04:38:59;;;;;;;11.60;9.10;;;-2.70;84.90;;;;;;6079506;23;20553;-93
2022/03/08 04:41:25;;;;;;;16.27;8.43;;;-2.70;85.00;;;;;;6079952;23;20156;-93
2022/03/08 04:43:51;;;;;;;15.83;9.77;;;-2.60;85.10;;;;;;6079494;23;20180;-93
2022/03/08 04:46:17;;;;;;;16.27;9.20;;;-2.50;85.20;;;;;;6079398;23;20317;-94
2022/03/08 04:48:42;;;;;;;14.23;8.63;;;-2.60;85.00;;;;;;6079649;23;20157;-93
2022/03/08 04:51:08;;;;;;;12.73;8.83;;;-2.70;85.20;;;;;;6080487;23;20164;-94
2022/03/08 04:53:34;;;;;;;12.77;9.67;;;-2.70;85.40;;;;;;6105488;23;20159;-94
2022/03/08 04:56:00;;;;;;;12.87;9.03;;;-2.60;85.50;;;;;;6079686;23;20166;-93
2022/03/08 04:58:25;;;;;;;15.07;10.03;;;-2.60;85.60;;;;;;6080669;23;20183;-94
2022/03/08 05:00:51;;;;;;;18.13;10.43;;;-2.60;85.70;;;;;;6081276;23;20161;-94
2022/03/08 05:03:17;;;;;;;15.17;10.03;;;-2.60;85.70;;;;;;6080610;23;20237;-94
2022/03/08 05:05:44;;;;;;;18.27;10.20;;;-2.60;85.90;;;;;;6081595;23;20178;-93
2022/03/08 05:08:10;;;;;;;18.10;9.57;;;-2.70;86.10;;;;;;6081880;23;20199;-93
2022/03/08 05:10:35;;;;;;;12.43;9.70;;;-2.70;86.20;;;;;;6081901;23;20178;-94
2022/03/08 05:13:03;;;;;;;13.73;10.30;;;-2.80;86.30;;;;;;6081087;23;20162;-93
2022/03/08 05:15:29;;;;;;;13.87;9.40;;;-2.80;86.50;;;;;;6081867;23;20182;-93
2022/03/08 05:17:55;;;;;;;16.57;10.60;;;-2.70;86.60;;;;;;6082153;23;20480;-93
2022/03/08 05:20:21;;;;;;;14.17;9.57;;;-2.60;86.60;;;;;;6081157;23;20183;-93
2022/03/08 05:22:47;;;;;;;13.80;10.40;;;-2.60;86.60;;;;;;6083370;23;20556;-93
2022/03/08 05:25:12;;;;;;;14.63;9.77;;;-2.60;86.50;;;;;;6082927;23;20550;-94
2022/03/08 05:27:38;;;;;;;14.10;9.73;;;-2.70;86.40;;;;;;6081934;23;20153;-94
2022/03/08 05:30:05;;;;;;;12.27;9.40;;;-2.80;86.40;;;;;;6083014;23;20165;-94
2022/03/08 05:32:31;;;;;;;14.03;10.07;;;-2.80;86.50;;;;;;6082014;23;20159;-94
2022/03/08 05:34:56;;;;;;;24.13;11.27;;;-2.70;86.60;;;;;;6082294;23;20180;-93
2022/03/08 05:37:22;;;;;;;17.70;10.47;;;-2.60;86.60;;;;;;6081606;23;20239;-94
2022/03/08 05:39:48;;;;;;;14.63;10.43;;;-2.70;86.70;;;;;;6081187;23;20207;-94
2022/03/08 05:42:14;;;;;;;16.53;10.37;;;-2.70;86.70;;;;;;6081910;23;20215;-94
2022/03/08 05:44:39;;;;;;;17.30;9.73;;;-2.70;86.70;;;;;;6081804;23;20183;-94
2022/03/08 05:47:05;;;;;;;14.23;9.87;;;-2.70;86.70;;;;;;6078336;23;20156;-93
2022/03/08 05:49:31;;;;;;;15.70;11.00;;;-2.80;86.60;;;;;;6078019;23;20161;-93
2022/03/08 05:51:57;;;;;;;15.00;10.30;;;-2.70;86.70;;;;;;6076488;23;20159;-92
2022/03/08 05:54:22;;;;;;;16.60;10.17;;;-2.70;86.70;;;;;;6076160;23;20351;-92
2022/03/08 05:56:48;;;;;;;17.07;10.90;;;-2.70;86.90;;;;;;6076857;23;20160;-93
2022/03/08 05:59:14;;;;;;;19.20;10.70;;;-2.80;86.80;;;;;;6075524;23;20181;-93
2022/03/08 06:01:40;;;;;;;21.23;10.77;;;-2.80;87.00;;;;;;6076154;23;20199;-94
2022/03/08 06:04:06;;;;;;;14.80;10.53;;;-2.80;87.10;;;;;;6100971;23;20177;-93
2022/03/08 06:06:32;;;;;;;20.00;10.57;;;-2.90;87.30;;;;;;6076457;23;20164;-93
2022/03/08 06:08:57;;;;;;;15.00;11.27;;;-3.00;87.30;;;;;;6076056;23;20172;-93
2022/03/08 06:11:23;;;;;;;14.63;10.57;;;-2.90;87.60;;;;;;6076935;23;20164;-93
2022/03/08 06:13:48;;;;;;;21.33;12.93;;;-2.80;87.80;;;;;;6076134;23;20205;-93
2022/03/08 06:16:14;;;;;;;19.03;10.93;;;-2.70;88.00;;;;;;6076057;23;20166;-93
2022/03/08 06:18:40;;;;;;;16.47;11.53;;;-2.60;88.20;;;;;;6076457;23;20280;-93
2022/03/08 06:21:06;;;;;;;21.53;11.67;;;-2.60;88.10;;;;;;6076439;23;20183;-93
2022/03/08 06:23:31;;;;;;;17.53;11.27;;;-2.50;88.20;;;;;;6076842;23;20168;-94
2022/03/08 06:25:57;;;;;;;16.23;11.70;;;-2.50;88.20;;;;;;6076898;23;20156;-93
2022/03/08 06:28:23;;;;;;;18.27;12.03;;;-2.50;88.20;;;;;;6077870;23;20585;-93
2022/03/08 06:30:48;;;;;;;19.27;11.37;;;-2.50;88.20;;;;;;6075660;23;20233;-93
2022/03/08 06:33:14;;;;;;;18.23;10.63;;;-2.40;88.30;;;;;;6076984;23;20160;-93
2022/03/08 06:35:40;;;;;;;19.10;11.60;;;-2.40;88.20;;;;;;6076089;23;20180;-93
2022/03/08 06:38:05;;;;;;;20.83;10.67;;;-2.40;88.20;;;;;;6075778;23;20187;-93
2022/03/08 06:40:32;;;;;;;19.73;11.20;;;-2.40;88.10;;;;;;6075576;23;20596;-93
2022/03/08 06:42:57;;;;;;;18.33;10.77;;;-2.40;87.90;;;;;;6075177;23;20165;-94
2022/03/08 06:45:23;;;;;;;16.03;10.57;;;-2.50;87.90;;;;;;6075307;23;20189;-93
2022/03/08 06:47:49;;;;;;;20.47;13.30;;;-2.20;88.20;;;;;;6077341;23;20162;-93
2022/03/08 06:50:14;;;;;;;25.40;11.43;;;-2.00;88.40;;;;;;6075959;23;20168;-93
2022/03/08 06:52:40;;;;;;;21.37;11.07;;;-1.90;88.50;;;;;;6075934;23;20670;-93
2022/03/08 06:55:06;;;;;;;21.90;12.90;;;-1.80;88.50;;;;;;6076701;23;20185;-93
2022/03/08 06:57:32;;;;;;;23.10;12.17;;;-1.70;88.50;;;;;;6077094;23;20162;-93
2022/03/08 06:59:58;;;;;;;22.13;13.70;;;-1.60;88.40;;;;;;6077063;23;20244;-93
2022/03/08 07:02:25;;;;;;;25.40;13.23;;;-1.60;88.40;;;;;;6078108;23;20165;-93
2022/03/08 07:04:50;;;;;;;15.40;11.53;;;-1.40;88.40;;;;;;6082958;23;20653;-91
2022/03/08 07:07:16;;;;;;;19.90;12.43;;;-1.40;88.40;;;;;;6116814;23;20152;-92
2022/03/08 07:09:42;;;;;;;16.17;11.80;;;-1.30;88.30;;;;;;6097794;23;20169;-92
2022/03/08 07:12:10;;;;;;;21.60;13.40;;;-1.20;88.30;;;;;;6092003;23;20164;-92
2022/03/08 07:14:39;;;;;;;18.00;13.03;;;-1.20;88.30;;;;;;6111953;23;20171;-93
2022/03/08 07:17:07;;;;;;;17.37;12.40;;;-1.10;88.30;;;;;;6081088;23;20166;-93
2022/03/08 07:19:33;;;;;;;27.83;14.30;;;-1.10;88.30;;;;;;6087192;23;20185;-93
2022/03/08 07:21:58;;;;;;;24.30;12.67;;;-1.00;88.30;;;;;;6087601;23;20238;-93
2022/03/08 07:24:24;;;;;;;17.70;13.00;;;-0.90;88.30;;;;;;6080772;23;20189;-92
2022/03/08 07:26:50;;;;;;;19.67;12.77;;;-0.80;88.30;;;;;;6073596;23;20156;-92
2022/03/08 07:29:15;;;;;;;21.70;12.93;;;-0.70;88.30;;;;;;6078318;23;20550;-93
2022/03/08 07:31:41;;;;;;;21.50;13.20;;;-0.60;88.20;;;;;;6082554;23;20603;-93
2022/03/08 07:34:09;;;;;;;22.93;13.60;;;-0.60;88.10;;;;;;6079438;23;20182;-92
2022/03/08 07:36:37;;;;;;;18.67;13.20;;;-0.40;88.20;;;;;;6078151;23;20159;-93
2022/03/08 07:39:06;;;;;;;24.53;13.50;;;-0.30;88.20;;;;;;6096118;23;20230;-94
2022/03/08 07:41:35;;;;;;;22.87;14.23;;;-0.30;88.10;;;;;;6099653;23;20166;-93
2022/03/08 07:44:03;;;;;;;30.83;21.37;;;-0.20;88.00;;;;;;6094284;23;20185;-93
2022/03/08 07:46:28;;;;;;;21.07;14.27;;;-0.10;88.00;;;;;;6087297;23;20608;-93
2022/03/08 07:49:00;;;;;;;26.57;14.17;;;0.00;87.70;;;;;;6085836;23;20167;-93
2022/03/08 07:51:35;;;;;;;20.77;13.93;;;0.00;87.60;;;;;;6100460;23;20139;-93
2022/03/08 07:54:07;;;;;;;17.93;12.27;;;0.10;87.40;;;;;;6098223;23;20192;-93
2022/03/08 07:56:42;;;;;;;23.47;13.37;;;0.20;87.30;;;;;;6100041;23;20147;-91
2022/03/08 07:59:37;;;;;;;17.00;12.63;;;0.30;86.90;;;;;;6099610;23;20182;-93
2022/03/08 08:02:11;;;;;;;19.80;12.00;;;0.30;86.50;;;;;;5957939;24;20170;-93
2022/03/08 08:09:53;;;;;;;16.97;11.20;;;0.70;85.90;;;;;;6099341;23;20237;-94
2022/03/08 08:12:38;;;;;;;17.93;11.37;;;0.80;85.80;;;;;;6100532;23;20149;-92
2022/03/08 08:15:13;;;;;;;14.03;10.03;;;0.90;85.50;;;;;;6099412;23;20159;-92
2022/03/08 08:17:39;;;;;;;22.00;11.37;;;1.00;85.00;;;;;;6100210;23;20157;-93
2022/03/08 08:20:40;;;;;;;19.00;11.27;;;1.10;84.80;;;;;;6101424;23;20197;-94
2022/03/08 08:23:15;;;;;;;17.57;11.37;;;1.20;84.40;;;;;;5987506;23;20145;-93
2022/03/08 08:25:41;;;;;;;18.20;11.53;;;1.40;84.20;;;;;;6085499;23;20196;-93
2022/03/08 08:28:06;;;;;;;13.17;9.10;;;1.60;83.80;;;;;;6101517;23;20166;-94
2022/03/08 08:30:33;;;;;;;12.63;9.40;;;1.70;83.60;;;;;;6101452;23;20179;-94
2022/03/08 08:33:02;;;;;;;11.93;8.50;;;1.70;83.00;;;;;;6101381;23;20182;-93
2022/03/08 08:35:31;;;;;;;16.30;9.10;;;1.80;82.80;;;;;;6101536;23;20172;-93
2022/03/08 08:37:56;;;;;;;15.43;8.60;;;2.00;82.30;;;;;;6091933;23;20166;-92
2022/03/08 08:40:37;;;;;;;11.17;8.23;;;2.20;81.60;;;;;;6109477;23;20228;-94
2022/03/08 08:45:51;;;;;;;13.70;7.20;;;2.50;79.80;;;;;;6149387;23;20188;-93
2022/03/08 08:48:17;;;;;;;17.93;7.50;;;2.60;78.90;;;;;;6123466;23;20153;-93
2022/03/08 08:50:45;;;;;;;14.40;6.47;;;2.80;78.70;;;;;;6113993;23;20170;-92
2022/03/08 08:53:11;;;;;;;8.43;6.40;;;2.80;78.20;;;;;;6120610;23;20157;-93
2022/03/08 08:55:40;;;;;;;14.70;7.17;;;2.90;78.10;;;;;;6126222;23;20178;-93
2022/03/08 08:58:17;;;;;;;14.23;7.73;;;3.00;77.50;;;;;;6126567;23;20182;-92
2022/03/08 09:00:43;;;;;;;12.97;7.70;;;3.10;77.20;;;;;;6122725;23;20158;-93
2022/03/08 09:03:14;;;;;;;7.97;6.70;;;3.20;76.70;;;;;;6123091;23;20225;-91
2022/03/08 09:05:48;;;;;;;9.43;7.27;;;3.40;76.50;;;;;;6126947;23;20205;-93
2022/03/08 09:08:14;;;;;;;13.43;9.33;;;3.40;76.10;;;;;;6123118;23;20144;-92
2022/03/08 09:10:40;;;;;;;11.60;8.03;;;3.60;76.40;;;;;;6104689;23;20157;-90
2022/03/08 09:13:06;;;;;;;9.13;7.23;;;3.60;76.90;;;;;;6101578;23;20192;-90
2022/03/08 09:15:32;;;;;;;10.70;7.00;;;3.70;75.10;;;;;;6101750;23;20178;-90
2022/03/08 09:17:59;;;;;;;9.40;6.40;;;3.80;75.10;;;;;;6103270;23;20157;-90
2022/03/08 09:20:26;;;;;;;8.97;6.40;;;3.90;74.50;;;;;;6108153;23;20185;-89
2022/03/08 09:22:53;;;;;;;9.27;6.77;;;4.20;73.80;;;;;;6118652;23;20142;-92
2022/03/08 09:25:22;;;;;;;9.07;7.20;;;4.40;73.00;;;;;;6121762;23;20268;-92
2022/03/08 09:27:51;;;;;;;9.03;6.60;;;4.40;72.20;;;;;;6122676;23;20146;-91
2022/03/08 09:30:20;;;;;;;8.43;6.27;;;4.60;71.80;;;;;;6126257;23;20164;-91
2022/03/08 09:32:48;;;;;;;7.83;5.57;;;4.60;71.90;;;;;;6126172;23;20158;-91
2022/03/08 09:35:14;;;;;;;6.87;5.20;;;4.70;71.90;;;;;;6129605;23;20194;-92
2022/03/08 09:43:13;;;;;;;6.47;5.37;;;5.30;69.80;;;;;;6154120;23;20175;-92
2022/03/08 09:45:39;;;;;;;5.73;5.00;;;5.30;67.00;;;;;;6111525;23;20701;-91
2022/03/08 09:48:23;;;;;;;7.63;5.40;;;5.50;68.70;;;;;;6090794;23;20196;-90
2022/03/08 09:50:51;;;;;;;9.50;5.40;;;5.60;66.70;;;;;;6089448;23;20160;-90
2022/03/08 09:53:17;;;;;;;6.67;4.33;;;5.80;66.10;;;;;;6078211;23;20239;-91
2022/03/08 09:55:46;;;;;;;10.00;5.00;;;5.80;64.70;;;;;;6077114;23;20174;-91
2022/03/08 09:58:11;;;;;;;7.63;4.30;;;5.80;65.20;;;;;;6078215;23;20164;-92
2022/03/08 10:00:37;;;;;;;7.47;5.23;;;5.90;66.00;;;;;;6078042;23;20706;-91
2022/03/08 10:03:18;;;;;;;15.17;4.87;;;6.00;64.50;;;;;;6078820;23;20158;-91
2022/03/08 10:05:44;;;;;;;6.87;5.13;;;6.20;65.30;;;;;;6078365;23;20177;-92
2022/03/08 10:08:14;;;;;;;9.07;5.93;;;6.30;65.50;;;;;;6093051;23;20158;-91
2022/03/08 10:26:15;;;;;;;8.30;3.97;;;7.20;61.40;;;;;;6153566;23;20169;-92
2022/03/08 10:54:34;;;;;;;8.03;3.30;;;8.40;55.40;;;;;;6080136;23;20214;-93
2022/03/08 10:57:02;;;;;;;4.07;3.17;;;8.60;54.80;;;;;;6075641;23;20155;-93
2022/03/08 10:59:28;;;;;;;7.03;3.87;;;8.60;54.90;;;;;;6064662;23;20658;-92
2022/03/08 11:01:55;;;;;;;5.70;3.97;;;8.50;55.60;;;;;;6067646;23;20206;-92
2022/03/08 11:04:23;;;;;;;5.43;3.57;;;8.50;53.30;;;;;;6092808;23;20245;-91
2022/03/08 11:06:57;;;;;;;5.57;3.77;;;8.50;53.20;;;;;;6082160;23;20159;-92
2022/03/08 11:11:58;;;;;;;12.10;3.00;;;8.80;53.80;;;;;;6109899;23;20210;-93
2022/03/08 11:14:25;;;;;;;6.90;3.00;;;9.00;53.20;;;;;;6082242;23;20690;-92
2022/03/08 11:16:51;;;;;;;5.23;3.10;;;9.00;50.90;;;;;;6081212;23;20154;-91
2022/03/08 11:19:26;;;;;;;4.33;3.90;;;9.30;52.00;;;;;;6080904;23;20190;-92
2022/03/08 11:21:59;;;;;;;7.30;3.07;;;9.30;52.50;;;;;;6083110;23;20153;-91
2022/03/08 11:24:28;;;;;;;7.67;3.67;;;9.30;52.00;;;;;;6086863;23;20269;-92
2022/03/08 11:26:54;;;;;;;4.50;2.37;;;9.40;52.30;;;;;;6083665;23;20161;-92
2022/03/08 11:29:21;;;;;;;5.60;2.87;;;9.40;51.50;;;;;;6079513;23;20220;-92
2022/03/08 11:32:00;;;;;;;6.00;2.80;;;9.40;49.10;;;;;;6073238;23;20222;-92
2022/03/08 11:34:37;;;;;;;4.90;3.50;;;9.50;50.00;;;;;;6074693;23;20284;-91
2022/03/08 12:44:22;;;;;;;5.97;2.60;;;11.70;43.80;;;;;;6108976;23;20213;-94
2022/03/08 12:50:01;;;;;;;8.30;2.83;;;11.60;42.20;;;;;;6008313;23;20161;-92
2022/03/08 12:53:13;;;;;;;8.10;2.63;;;11.80;41.70;;;;;;6010302;23;20205;-95
2022/03/08 13:34:39;;;;;;;5.77;2.40;;;11.00;43.60;;;;;;6062751;23;20200;-91
2022/03/08 13:58:04;;;;;;;6.00;3.20;;;11.10;46.90;;;;;;6100269;23;20214;-92
2022/03/08 14:03:59;;;;;;;5.17;3.20;;;11.60;43.70;;;;;;6117199;23;20178;-93
2022/03/08 14:06:31;;;;;;;3.60;2.73;;;11.80;43.00;;;;;;6083785;23;20155;-93
2022/03/08 14:09:01;;;;;;;4.53;3.00;;;11.50;42.80;;;;;;6074650;23;20192;-93
2022/03/08 14:11:27;;;;;;;5.07;2.70;;;11.70;43.80;;;;;;6078315;23;20166;-94
2022/03/08 14:13:58;;;;;;;3.80;3.23;;;11.60;42.90;;;;;;6078463;23;20179;-94
2022/03/08 14:16:44;;;;;;;3.97;2.80;;;11.40;44.50;;;;;;6085759;23;20183;-94
2022/03/08 14:28:09;;;;;;;4.67;3.37;;;11.20;45.30;;;;;;6075955;23;20210;-93
2022/03/08 14:30:10;;;;;;;5.70;2.77;;;11.10;44.90;;;;;;6067233;23;20659;-92
2022/03/08 14:32:40;;;;;;;4.97;3.10;;;10.80;44.60;;;;;;6077531;23;20166;-92
2022/03/08 14:35:15;;;;;;;4.00;3.50;;;10.70;44.80;;;;;;6086358;23;20176;-92
2022/03/08 14:37:44;;;;;;;4.53;2.97;;;10.70;46.40;;;;;;6075389;23;20159;-92
2022/03/08 14:40:45;;;;;;;4.97;3.80;;;10.80;45.10;;;;;;6085424;23;20212;-93
2022/03/08 14:43:42;;;;;;;6.53;4.13;;;10.90;47.10;;;;;;6060241;23;20152;-93
2022/03/08 15:05:10;;;;;;;;;;;;;;;;;;;;;
2022/03/08 15:20:32;;;;;;;5.80;2.83;;;10.60;47.00;;;;;;6075423;23;20248;-93
2022/03/08 15:23:01;;;;;;;5.40;3.17;;;10.60;48.80;;;;;;6097324;23;20178;-93
2022/03/08 15:25:32;;;;;;;3.50;2.80;;;10.50;47.90;;;;;;6094439;23;20179;-92
2022/03/08 15:27:58;;;;;;;5.17;2.93;;;10.60;46.70;;;;;;6080009;23;20162;-92
2022/03/08 15:30:24;;;;;;;7.30;3.10;;;10.80;47.10;;;;;;6077699;23;20599;-91
2022/03/08 15:32:49;;;;;;;3.80;2.93;;;10.80;47.10;;;;;;6078791;23;20159;-91
2022/03/08 15:35:20;;;;;;;3.60;2.40;;;10.80;46.70;;;;;;6078976;23;20178;-92
2022/03/08 15:37:48;;;;;;;3.63;2.60;;;10.60;45.50;;;;;;6085935;23;20237;-92
2022/03/08 15:40:42;;;;;;;4.57;2.00;;;10.50;46.40;;;;;;6089201;23;20178;-92
2022/03/08 15:43:11;;;;;;;7.37;2.87;;;10.40;47.80;;;;;;6087449;23;20155;-93
2022/03/08 15:45:39;;;;;;;3.80;2.20;;;10.30;49.60;;;;;;6067913;23;20215;-94
2022/03/08 15:48:13;;;;;;;9.77;2.37;;;10.30;47.40;;;;;;6071363;23;20195;-94
2022/03/08 15:50:39;;;;;;;3.27;2.43;;;10.10;47.90;;;;;;6071248;23;20190;-93
2022/03/08 15:53:10;;;;;;;4.80;2.40;;;10.00;48.30;;;;;;6069641;23;20174;-93
2022/03/08 15:55:39;;;;;;;11.00;2.33;;;10.00;49.60;;;;;;6065277;23;20163;-92
2022/03/08 15:58:05;;;;;;;3.87;2.10;;;9.90;49.90;;;;;;6059937;23;20258;-93
2022/03/08 16:00:34;;;;;;;2.90;2.20;;;9.90;49.50;;;;;;6068990;23;20198;-93
2022/03/08 16:03:01;;;;;;;3.10;2.60;;;9.80;49.90;;;;;;6070735;23;20340;-92
2022/03/08 16:05:27;;;;;;;9.30;2.60;;;9.80;49.80;;;;;;6071378;23;20168;-92
2022/03/08 16:18:27;;;;;;;6.23;2.80;;;9.40;51.30;;;;;;6102532;23;20220;-94
2022/03/08 16:20:53;;;;;;;8.03;2.10;;;9.30;52.00;;;;;;6091491;23;20230;-92
2022/03/08 16:23:19;;;;;;;2.70;1.93;;;9.30;52.70;;;;;;6079643;23;20143;-92
2022/03/08 16:25:44;;;;;;;6.40;2.30;;;9.20;52.90;;;;;;6092253;23;20188;-92
2022/03/08 16:28:39;;;;;;;3.80;2.10;;;9.10;52.60;;;;;;6092223;23;20258;-92
2022/03/08 16:31:07;;;;;;;2.73;2.20;;;9.00;53.00;;;;;;5971713;24;20173;-92
2022/03/08 16:33:33;;;;;;;3.20;2.27;;;8.80;53.60;;;;;;6060172;23;20159;-91
2022/03/08 16:38:50;;;;;;;3.57;2.33;;;8.70;54.10;;;;;;6093106;23;20196;-96
2022/03/08 16:44:27;;;;;;;7.70;2.40;;;8.60;54.50;;;;;;6097313;23;21267;-93
2022/03/08 16:59:55;;;;;;;3.30;2.17;;;7.90;56.80;;;;;;6105872;23;20722;-93
2022/03/08 17:19:02;;;;;;;27.87;3.30;;;6.90;60.30;;;;;;6101841;23;20247;-94
2022/03/08 17:21:51;;;;;;;50.37;3.87;;;6.80;60.80;;;;;;6089983;23;20158;-94
2022/03/08 17:24:25;;;;;;;45.60;4.63;;;6.70;61.10;;;;;;6092845;23;20175;-94